KGNV

Gainesville Regional Airport

Gainesville, Florida, USA
METAR KGNV 231353Z 00000KT 10SM FEW002 19/19 A3043 RMK AO2 SLP303 T01890189
Observed Flight Rules
Feb-23 @ 13:53 UTC (34 minutes ago) Visual Flight Rules
Wind Visibility Clouds
Calm 10 miles
  • Few at 200' AGL
Temperatures Readings
Current 19°C / 66°F
Dewpoint 19°C / 66°F
Humidity 100%
Altimeter 30.43" Hg
Pressure 1030.3 hPa
Elevation 45
METAR KGNV 231353Z 00000KT 10SM FEW002 19/19 A3043 RMK AO2 SLP303 T01890189
Observed Flight Rules
Feb-23 @ 13:53 UTC
(34 minutes ago)
VFR
Wind Visibility
Calm 10 miles
Clouds
  • Few at 200' AGL
Temperature Dewpoint
19°C / 66°F 19°C / 66°F
Humidity Altimeter Pressure
100% 30.43" Hg 1030.3 hPa